createdAt,value
2023-02-25T00:01:16.190Z,99413.09
2023-02-25T00:03:59.577Z,99419.14
2023-02-25T00:06:30.274Z,99421.70
2023-02-25T00:09:05.318Z,99425.19
2023-02-25T00:11:47.033Z,99422.52
2023-02-25T00:14:28.396Z,99427.36
2023-02-25T00:17:02.392Z,99426.23
2023-02-25T00:19:55.214Z,99432.25
2023-02-25T00:22:46.017Z,99431.76
2023-02-25T00:25:36.795Z,99432.46
2023-02-25T00:28:22.334Z,99433.51
2023-02-25T00:31:09.180Z,99430.21
2023-02-25T00:33:49.280Z,99433.30
2023-02-25T00:36:24.718Z,99430.88
2023-02-25T00:39:07.458Z,99437.88
2023-02-25T00:41:50.860Z,99429.39
2023-02-25T00:44:44.416Z,99431.66
2023-02-25T00:47:26.747Z,99438.52
2023-02-25T00:50:17.562Z,99443.78
2023-02-25T00:52:55.742Z,99443.98
2023-02-25T00:55:44.000Z,99442.78
2023-02-25T00:58:36.233Z,99445.43
2023-02-25T01:01:30.265Z,99448.16
2023-02-25T01:04:21.100Z,99450.86
2023-02-25T01:06:55.252Z,99454.60
2023-02-25T01:09:29.367Z,99456.23
2023-02-25T01:12:01.482Z,99458.20
2023-02-25T01:14:45.346Z,99458.09
2023-02-25T01:17:25.500Z,99460.29
2023-02-25T01:19:59.647Z,99464.95
2023-02-25T01:22:30.181Z,99460.40
2023-02-25T01:25:09.639Z,99461.27
2023-02-25T01:28:00.520Z,99458.96
2023-02-25T01:30:41.406Z,99455.98
2023-02-25T01:33:12.401Z,99455.23
2023-02-25T01:35:53.611Z,99453.84
2023-02-25T01:38:44.420Z,99456.10
2023-02-25T01:41:17.849Z,99457.30
2023-02-25T01:44:09.197Z,99452.41
2023-02-25T01:46:55.851Z,99452.24
2023-02-25T01:49:32.985Z,99449.01
2023-02-25T01:52:08.988Z,99457.50
2023-02-25T01:54:49.334Z,99449.12
2023-02-25T01:57:21.970Z,99453.37
2023-02-25T01:59:56.295Z,99453.64
2023-02-25T02:02:34.026Z,99459.95
2023-02-25T02:05:10.156Z,99455.98
2023-02-25T02:07:41.571Z,99458.80
2023-02-25T02:10:30.821Z,99460.81
2023-02-25T02:13:16.509Z,99460.31
2023-02-25T02:16:08.250Z,99454.25
2023-02-25T02:18:46.140Z,99457.48
2023-02-25T02:21:52.314Z,99456.66
2023-02-25T02:25:01.967Z,99454.80
2023-02-25T02:28:11.621Z,99449.10
2023-02-25T02:30:59.043Z,99452.09
2023-02-25T02:33:40.368Z,99456.10
2023-02-25T02:36:30.580Z,99457.36
2023-02-25T02:39:09.666Z,99462.77
2023-02-25T02:41:47.458Z,99455.66
2023-02-25T02:44:49.219Z,99456.38
2023-02-25T02:47:28.269Z,99461.61
2023-02-25T02:50:09.840Z,99458.32
2023-02-25T02:52:44.632Z,99464.28
2023-02-25T02:55:38.722Z,99465.77
2023-02-25T02:58:33.939Z,99470.13
2023-02-25T03:01:19.031Z,99474.17
2023-02-25T03:03:59.917Z,99474.88
2023-02-25T03:06:35.162Z,99479.24
2023-02-25T03:09:11.730Z,99483.27
2023-02-25T03:11:42.463Z,99481.68
2023-02-25T03:14:14.152Z,99481.88
2023-02-25T03:16:48.488Z,99486.41
2023-02-25T03:19:29.606Z,99486.41
2023-02-25T03:22:06.942Z,99489.52
2023-02-25T03:24:54.664Z,99485.85
2023-02-25T03:27:34.612Z,99483.21
2023-02-25T03:30:22.712Z,99484.16
2023-02-25T03:33:01.244Z,99487.39
2023-02-25T03:35:33.451Z,99493.86
2023-02-25T03:38:29.396Z,99489.76
2023-02-25T03:41:05.854Z,99490.02
2023-02-25T03:43:46.515Z,99486.15
2023-02-25T03:46:22.066Z,99489.28
2023-02-25T03:49:19.245Z,99487.70
2023-02-25T03:52:16.103Z,99492.08
2023-02-25T03:55:09.756Z,99495.41
2023-02-25T03:57:43.155Z,99494.04
2023-02-25T04:00:19.192Z,99498.05
2023-02-25T04:02:50.650Z,99498.40
2023-02-25T04:05:27.835Z,99497.89
2023-02-25T04:07:59.989Z,99498.77
2023-02-25T04:10:34.479Z,99502.98
2023-02-25T04:13:20.509Z,99499.86
2023-02-25T04:15:52.337Z,99499.89
2023-02-25T04:18:26.691Z,99505.48
2023-02-25T04:21:09.604Z,99511.41
2023-02-25T04:23:49.036Z,99517.65
2023-02-25T04:26:29.472Z,99514.50
2023-02-25T04:29:02.686Z,99508.48
2023-02-25T04:31:33.515Z,99512.45
2023-02-25T04:34:04.799Z,99513.98
2023-02-25T04:36:37.224Z,99512.75
2023-02-25T04:39:08.888Z,99516.91
2023-02-25T04:41:39.992Z,99522.64
2023-02-25T04:44:15.849Z,99526.92
2023-02-25T04:46:51.687Z,99529.13
2023-02-25T04:49:31.423Z,99526.28
2023-02-25T04:52:06.967Z,99528.35
2023-02-25T04:54:37.476Z,99526.60
2023-02-25T04:57:08.618Z,99523.33
2023-02-25T04:59:42.157Z,99521.91
2023-02-25T05:02:13.343Z,99521.52
2023-02-25T05:04:44.073Z,99523.06
2023-02-25T05:07:14.817Z,99524.95
2023-02-25T05:09:48.647Z,99522.15
2023-02-25T05:12:19.233Z,99518.85
2023-02-25T05:15:04.835Z,99514.81
2023-02-25T05:17:54.144Z,99513.20
2023-02-25T05:20:32.455Z,99511.63
2023-02-25T05:23:13.946Z,99513.19
2023-02-25T05:25:58.008Z,99515.30
2023-02-25T05:28:28.894Z,99516.53
2023-02-25T05:30:59.542Z,99514.27
2023-02-25T05:33:41.989Z,99518.31
2023-02-25T05:36:15.294Z,99519.92
2023-02-25T05:38:58.955Z,99521.52
2023-02-25T05:41:35.923Z,99515.93
2023-02-25T05:44:16.508Z,99517.31
2023-02-25T05:47:07.728Z,99517.64
2023-02-25T05:49:58.658Z,99524.77
2023-02-25T05:52:29.467Z,99525.65
2023-02-25T05:55:20.236Z,99531.89
2023-02-25T05:57:53.179Z,99532.40
2023-02-25T06:00:24.691Z,99530.11
2023-02-25T06:03:09.450Z,99521.52
2023-02-25T06:05:53.201Z,99522.88
2023-02-25T06:08:23.832Z,99521.79
2023-02-25T06:10:54.543Z,99521.61
2023-02-25T06:13:45.291Z,99515.13
2023-02-25T06:16:36.142Z,99511.98
2023-02-25T06:19:21.589Z,99513.68
2023-02-25T06:22:02.284Z,99521.67
2023-02-25T06:24:53.084Z,99525.48
2023-02-25T06:27:23.855Z,99530.55
2023-02-25T06:29:59.923Z,99536.97
2023-02-25T06:32:43.867Z,99533.81
2023-02-25T06:35:25.808Z,99545.13
2023-02-25T06:38:10.185Z,99544.45
2023-02-25T06:40:51.810Z,99543.70
2023-02-25T06:43:22.494Z,99542.80
2023-02-25T06:46:04.526Z,99550.44
2023-02-25T06:48:55.898Z,99559.83
2023-02-25T06:51:26.621Z,99564.83
2023-02-25T06:53:57.498Z,99566.90
2023-02-25T06:56:29.122Z,99568.11
2023-02-25T06:58:59.771Z,99570.89
2023-02-25T07:01:50.535Z,99573.98
2023-02-25T07:04:23.663Z,99576.03
2023-02-25T07:07:05.520Z,99576.13
2023-02-25T07:09:36.541Z,99576.27
2023-02-25T07:12:27.381Z,99577.23
2023-02-25T07:15:18.238Z,99579.78
2023-02-25T07:17:49.286Z,99577.29
2023-02-25T07:20:40.325Z,99582.28
2023-02-25T07:23:11.159Z,99585.35
2023-02-25T07:25:42.036Z,99589.14
2023-02-25T07:28:33.448Z,99593.95
2023-02-25T07:31:25.134Z,99596.17
2023-02-25T07:34:18.135Z,99595.94
2023-02-25T07:36:56.110Z,99599.05
2023-02-25T07:39:27.170Z,99597.10
2023-02-25T07:42:00.601Z,99594.11
2023-02-25T07:44:32.196Z,99593.52
2023-02-25T07:47:02.807Z,99591.35
2023-02-25T07:49:43.635Z,99594.71
2023-02-25T07:52:17.268Z,99599.41
2023-02-25T07:54:51.298Z,99603.38
2023-02-25T07:57:22.167Z,99609.23
2023-02-25T07:59:58.637Z,99603.68
2023-02-25T08:02:40.836Z,99606.27
2023-02-25T08:05:34.426Z,99602.88
2023-02-25T08:08:08.735Z,99600.68
2023-02-25T08:10:59.398Z,99604.04
2023-02-25T08:13:30.185Z,99602.50
2023-02-25T08:16:01.079Z,99605.03
2023-02-25T08:18:42.927Z,99607.23
2023-02-25T08:21:19.110Z,99604.02
2023-02-25T08:23:50.575Z,99603.92
2023-02-25T08:26:27.644Z,99599.87
2023-02-25T08:28:59.312Z,99603.82
2023-02-25T08:31:40.559Z,99602.19
2023-02-25T08:34:31.455Z,99605.52
2023-02-25T08:37:23.868Z,99605.59
2023-02-25T08:40:14.983Z,99601.98
2023-02-25T08:43:05.751Z,99601.20
2023-02-25T08:45:46.538Z,99603.02
2023-02-25T08:48:20.078Z,99604.73
2023-02-25T08:51:08.424Z,99602.20
2023-02-25T08:54:10.421Z,99602.88
2023-02-25T08:57:00.267Z,99608.89
2023-02-25T08:59:37.250Z,99609.91
2023-02-25T09:02:28.112Z,99608.76
2023-02-25T09:05:16.021Z,99607.35
2023-02-25T09:09:43.951Z,99609.02
2023-02-25T09:11:25.756Z,99612.64
2023-02-25T09:14:19.816Z,99607.50
2023-02-25T09:17:00.731Z,99608.45
2023-02-25T09:19:52.120Z,99617.02
2023-02-25T09:22:48.611Z,99618.60
2023-02-25T09:29:39.738Z,99621.98
2023-02-25T09:32:37.500Z,99621.26
2023-02-25T09:35:18.948Z,99624.24
2023-02-25T09:37:52.162Z,99622.14
2023-02-25T09:40:32.916Z,99612.49
2023-02-25T09:43:28.157Z,99608.02
2023-02-25T09:46:09.678Z,99609.77
2023-02-25T09:48:53.464Z,99612.46
2023-02-25T09:51:39.113Z,99617.20
2023-02-25T09:54:26.198Z,99619.33
2023-02-25T09:57:11.994Z,99615.88
2023-02-25T10:00:09.294Z,99616.95
2023-02-25T10:02:50.115Z,99614.27
2023-02-25T10:05:48.468Z,99612.01
2023-02-25T10:08:46.377Z,99604.54
2023-02-25T10:11:48.614Z,99607.38
2023-02-25T10:14:39.108Z,99603.02
2023-02-25T10:17:20.528Z,99594.13
2023-02-25T10:20:40.186Z,99598.94
2023-02-25T10:23:43.008Z,99599.15
2023-02-25T10:26:39.101Z,99599.71
2023-02-25T10:29:36.588Z,99603.95
2023-02-25T10:32:24.124Z,99609.84
2023-02-25T10:35:00.841Z,99608.66
2023-02-25T10:37:37.566Z,99607.43
2023-02-25T10:40:22.013Z,99608.67
2023-02-25T10:43:00.785Z,99605.15
2023-02-25T10:45:33.348Z,99608.83
2023-02-25T10:48:15.119Z,99602.13
2023-02-25T10:51:02.714Z,99600.37
2023-02-25T10:53:34.295Z,99598.82
2023-02-25T10:56:15.284Z,99600.94
2023-02-25T10:59:02.380Z,99599.27
2023-02-25T11:01:40.280Z,99595.58
2023-02-25T11:04:15.377Z,99594.95
2023-02-25T11:06:49.656Z,99595.04
2023-02-25T11:09:43.565Z,99593.69
2023-02-25T11:12:20.410Z,99592.76
2023-02-25T11:14:51.177Z,99600.98
2023-02-25T11:17:38.246Z,99601.38
2023-02-25T11:20:32.418Z,99603.34
2023-02-25T11:23:29.392Z,99606.35
2023-02-25T11:26:31.456Z,99609.31
2023-02-25T11:29:11.615Z,99605.64
2023-02-25T11:32:09.463Z,99602.85
2023-02-25T11:34:50.327Z,99596.84
2023-02-25T11:37:45.481Z,99600.63
2023-02-25T11:40:29.368Z,99599.69
2023-02-25T11:43:18.311Z,99592.34
2023-02-25T11:45:57.519Z,99589.98
2023-02-25T11:48:35.056Z,99592.40
2023-02-25T11:51:18.335Z,99582.38
2023-02-25T11:54:23.666Z,99578.23
2023-02-25T11:57:02.018Z,99584.80
2023-02-25T11:59:38.330Z,99586.11
2023-02-25T12:02:24.744Z,99584.71
2023-02-25T12:05:38.732Z,99577.23
2023-02-25T12:08:40.267Z,99573.19
2023-02-25T12:11:36.210Z,99570.79
2023-02-25T12:14:38.191Z,99569.64
2023-02-25T12:18:00.858Z,99563.65
2023-02-25T12:21:14.431Z,99555.50
2023-02-25T12:24:17.488Z,99547.03
2023-02-25T12:27:08.273Z,99540.27
2023-02-25T12:30:01.524Z,99541.98
2023-02-25T12:32:58.922Z,99545.33
2023-02-25T12:35:54.244Z,99540.09
2023-02-25T12:38:58.541Z,99541.95
2023-02-25T12:41:47.110Z,99540.10
2023-02-25T12:44:34.212Z,99533.22
2023-02-25T12:47:25.577Z,99533.55
2023-02-25T12:50:40.574Z,99532.58
2023-02-25T12:53:42.657Z,99534.65
2023-02-25T12:56:41.880Z,99534.27
2023-02-25T12:59:23.637Z,99542.52
2023-02-25T13:02:05.847Z,99540.98
2023-02-25T13:05:24.337Z,99535.76
2023-02-25T13:08:26.023Z,99535.33
2023-02-25T13:11:01.708Z,99537.54
2023-02-25T13:14:15.999Z,99539.86
2023-02-25T13:17:12.032Z,99535.59
2023-02-25T13:20:20.878Z,99529.70
2023-02-25T13:23:06.846Z,99526.55
2023-02-25T13:25:56.923Z,99521.79
2023-02-25T13:28:41.524Z,99533.98
2023-02-25T13:31:33.146Z,99567.84
2023-02-25T13:34:23.352Z,99586.68
2023-02-25T13:37:18.646Z,99584.29
2023-02-25T13:40:27.256Z,99583.27
2023-02-25T13:43:40.318Z,99583.77
2023-02-25T13:47:11.475Z,99576.53
2023-02-25T13:50:21.518Z,99577.13
2023-02-25T13:53:27.242Z,99575.75
2023-02-25T13:56:38.088Z,99578.66
2023-02-25T13:59:25.454Z,99567.00
2023-02-25T14:02:40.312Z,99564.10
2023-02-25T14:05:42.520Z,99569.08
2023-02-25T14:08:54.668Z,99567.45
2023-02-25T14:11:51.342Z,99562.55
2023-02-25T14:15:11.263Z,99566.73
2023-02-25T14:17:59.880Z,99558.93
2023-02-25T14:21:07.574Z,99566.95
2023-02-25T14:23:48.397Z,99566.67
2023-02-25T14:26:34.413Z,99569.56
2023-02-25T14:29:16.052Z,99566.35
2023-02-25T14:32:01.526Z,99558.50
2023-02-25T14:34:44.786Z,99560.14
2023-02-25T14:37:27.656Z,99558.48
2023-02-25T14:40:18.813Z,99550.67
2023-02-25T14:43:13.360Z,99557.01
2023-02-25T14:45:48.143Z,99557.26
2023-02-25T14:48:26.672Z,99555.91
2023-02-25T14:51:15.303Z,99550.63
2023-02-25T14:54:03.369Z,99551.56
2023-02-25T14:56:49.175Z,99558.42
2023-02-25T14:59:51.757Z,99559.23
2023-02-25T15:02:40.073Z,99565.00
2023-02-25T15:05:33.562Z,99562.63
2023-02-25T15:08:27.730Z,99563.30
2023-02-25T15:11:32.413Z,99568.70
2023-02-25T15:14:34.001Z,99571.27
2023-02-25T15:17:50.432Z,99576.11
2023-02-25T15:20:44.910Z,99578.71
2023-02-25T15:23:19.684Z,99576.61
2023-02-25T15:26:14.496Z,99579.58
2023-02-25T15:29:06.245Z,99586.67
2023-02-25T15:32:12.438Z,99595.00
2023-02-25T15:34:58.542Z,99592.43
2023-02-25T15:37:35.425Z,99599.24
2023-02-25T15:40:50.720Z,99612.11
2023-02-25T15:43:46.575Z,99619.60
2023-02-25T15:46:42.175Z,99623.11
2023-02-25T15:49:29.400Z,99636.70
2023-02-25T15:52:05.148Z,99656.57
2023-02-25T15:54:53.589Z,99677.00
2023-02-25T15:57:41.855Z,99698.81
2023-02-25T16:00:53.834Z,99714.30
2023-02-25T16:03:42.274Z,99737.46
2023-02-25T16:06:30.258Z,99752.34
2023-02-25T16:09:18.061Z,99755.55
2023-02-25T16:11:53.428Z,99754.00
2023-02-25T16:14:27.509Z,99739.02
2023-02-25T16:17:15.975Z,99725.93
2023-02-25T16:20:05.963Z,99719.72
2023-02-25T16:22:53.481Z,99730.22
2023-02-25T16:25:31.297Z,99739.64
2023-02-25T16:28:15.563Z,99736.39
2023-02-25T16:31:08.503Z,99741.58
2023-02-25T16:33:50.777Z,99746.71
2023-02-25T16:36:33.762Z,99742.79
2023-02-25T16:39:20.902Z,99751.20
2023-02-25T16:41:52.957Z,99754.39
2023-02-25T16:44:33.718Z,99759.39
2023-02-25T16:47:25.993Z,99760.06
2023-02-25T16:50:23.288Z,99764.63
2023-02-25T16:53:23.650Z,99773.16
2023-02-25T16:56:03.003Z,99772.65
2023-02-25T16:59:07.281Z,99779.27
2023-02-25T17:01:47.187Z,99780.54
2023-02-25T17:04:31.808Z,99792.17
2023-02-25T17:07:21.983Z,99797.73
2023-02-25T17:10:06.345Z,99800.49
2023-02-25T17:12:58.518Z,99805.01
2023-02-25T17:15:48.207Z,99812.09
2023-02-25T17:18:33.088Z,99813.94
2023-02-25T17:21:22.791Z,99819.61
2023-02-25T17:24:02.930Z,99820.07
2023-02-25T17:26:39.165Z,99822.60
2023-02-25T17:29:24.357Z,99828.41
2023-02-25T17:32:22.889Z,99832.31
2023-02-25T17:35:07.320Z,99835.20
2023-02-25T17:37:41.942Z,99838.39
2023-02-25T17:40:16.910Z,99848.19
2023-02-25T17:42:50.140Z,99858.50
2023-02-25T17:45:50.101Z,99858.20
2023-02-25T17:48:24.367Z,99867.79
2023-02-25T17:50:58.741Z,99870.72
2023-02-25T17:53:40.251Z,99874.88
2023-02-25T17:56:38.254Z,99875.21
2023-02-25T17:59:38.810Z,99880.59
2023-02-25T18:02:37.698Z,99880.74
2023-02-25T18:05:22.769Z,99883.61
2023-02-25T18:08:19.579Z,99881.67
2023-02-25T18:10:58.571Z,99885.15
2023-02-25T18:13:40.179Z,99888.98
2023-02-25T18:16:43.204Z,99897.35
2023-02-25T18:19:32.239Z,99896.02
2023-02-25T18:22:01.615Z,99905.27
2023-02-25T18:24:57.196Z,99908.73
2023-02-25T18:27:30.584Z,99910.20
2023-02-25T18:30:19.747Z,99915.50
2023-02-25T18:32:54.788Z,99923.11
2023-02-25T18:35:42.073Z,99925.91
2023-02-25T18:38:19.410Z,99925.52
2023-02-25T18:41:02.934Z,99931.00
2023-02-25T18:43:37.172Z,99932.86
2023-02-25T18:46:18.044Z,99937.91
2023-02-25T18:48:59.346Z,99939.10
2023-02-25T18:51:40.273Z,99945.33
2023-02-25T18:54:18.717Z,99952.27
2023-02-25T18:57:20.602Z,99953.64
2023-02-25T19:00:01.397Z,99961.44
2023-02-25T19:02:47.411Z,99963.13
2023-02-25T19:05:23.465Z,99962.67
2023-02-25T19:07:57.077Z,99974.48
2023-02-25T19:10:48.865Z,99977.44
2023-02-25T19:13:22.341Z,99980.97
2023-02-25T19:15:56.468Z,99980.36
2023-02-25T19:18:30.468Z,99981.14
2023-02-25T19:21:17.804Z,99981.11
2023-02-25T19:23:51.606Z,99983.30
2023-02-25T19:26:30.703Z,99985.19
2023-02-25T19:29:00.702Z,99986.98
2023-02-25T19:31:31.576Z,99998.85
2023-02-25T19:34:02.631Z,100002.33
2023-02-25T19:36:33.384Z,99998.05
2023-02-25T19:39:24.264Z,100008.03
2023-02-25T19:41:57.786Z,100010.54
2023-02-25T19:44:28.632Z,100011.81
2023-02-25T19:47:02.228Z,100017.45
2023-02-25T19:49:33.104Z,100023.74
2023-02-25T19:52:07.155Z,100033.54
2023-02-25T19:54:41.464Z,100036.95
2023-02-25T19:57:12.615Z,100045.34
2023-02-25T19:59:43.717Z,100049.58
2023-02-25T20:02:33.050Z,100053.83
2023-02-25T20:05:07.030Z,100052.67
2023-02-25T20:07:58.026Z,100055.83
2023-02-25T20:10:31.061Z,100058.61
2023-02-25T20:13:22.050Z,100066.57
2023-02-25T20:16:12.974Z,100067.64
2023-02-25T20:18:57.848Z,100070.63
2023-02-25T20:21:29.380Z,100073.77
2023-02-25T20:24:03.960Z,100072.25
2023-02-25T20:26:37.481Z,100072.42
2023-02-25T20:29:19.453Z,100075.23
2023-02-25T20:32:00.463Z,100077.90
2023-02-25T20:34:41.964Z,100082.11
2023-02-25T20:37:20.614Z,100089.09
2023-02-25T20:40:08.144Z,100089.57
2023-02-25T20:42:50.798Z,100087.80
2023-02-25T20:45:38.939Z,100092.15
2023-02-25T20:48:18.685Z,100091.68
2023-02-25T20:50:52.817Z,100093.95
2023-02-25T20:53:24.476Z,100097.96
2023-02-25T20:56:19.401Z,100103.36
2023-02-25T20:58:50.393Z,100103.56
2023-02-25T21:01:24.766Z,100106.53
2023-02-25T21:03:55.780Z,100113.14
2023-02-25T21:06:29.460Z,100113.21
2023-02-25T21:09:20.494Z,100115.39
2023-02-25T21:11:51.287Z,100119.27
2023-02-25T21:14:22.298Z,100122.96
2023-02-25T21:17:13.824Z,100125.80
2023-02-25T21:19:47.327Z,100132.95
2023-02-25T21:22:21.800Z,100137.85
2023-02-25T21:25:04.629Z,100142.90
2023-02-25T21:27:44.566Z,100140.52
2023-02-25T21:30:16.379Z,100139.54
2023-02-25T21:32:50.379Z,100139.24
2023-02-25T21:35:25.196Z,100141.18
2023-02-25T21:38:09.590Z,100137.77
2023-02-25T21:40:49.762Z,100139.34
2023-02-25T21:43:24.694Z,100143.48
2023-02-25T21:46:00.636Z,100144.88
2023-02-25T21:48:53.327Z,100141.27
2023-02-25T21:51:35.432Z,100139.52
2023-02-25T21:54:10.114Z,100138.84
2023-02-25T21:56:42.680Z,100140.23
2023-02-25T21:59:18.781Z,100140.92
2023-02-25T22:01:53.157Z,100145.13
2023-02-25T22:04:26.089Z,100151.02
2023-02-25T22:06:56.823Z,100157.11
2023-02-25T22:09:37.428Z,100156.27
2023-02-25T22:12:22.534Z,100156.80
2023-02-25T22:15:01.930Z,100168.44
2023-02-25T22:17:36.567Z,100167.56
2023-02-25T22:20:27.553Z,100166.20
2023-02-25T22:23:00.916Z,100167.40
2023-02-25T22:25:51.851Z,100167.36
2023-02-25T22:28:44.747Z,100166.13
2023-02-25T22:31:29.107Z,100168.90
2023-02-25T22:34:20.264Z,100168.38
2023-02-25T22:37:02.080Z,100167.35
2023-02-25T22:39:35.577Z,100169.44
2023-02-25T22:42:09.401Z,100173.27
2023-02-25T22:45:00.558Z,100171.91
2023-02-25T22:47:32.169Z,100177.63
2023-02-25T22:50:23.229Z,100173.52
2023-02-25T22:53:14.259Z,100182.52
2023-02-25T22:56:06.904Z,100183.05
2023-02-25T22:58:51.055Z,100183.41
2023-02-25T23:01:41.881Z,100182.57
2023-02-25T23:04:32.830Z,100181.90
2023-02-25T23:07:13.866Z,100179.70
2023-02-25T23:09:58.441Z,100186.27
2023-02-25T23:12:30.528Z,100187.95
2023-02-25T23:15:12.636Z,100191.25
2023-02-25T23:18:04.117Z,100196.13
2023-02-25T23:20:54.103Z,100202.04
2023-02-25T23:23:47.410Z,100206.40
2023-02-25T23:26:30.410Z,100208.67
2023-02-25T23:29:21.282Z,100213.53
2023-02-25T23:32:12.100Z,100212.86
2023-02-25T23:35:03.014Z,100213.05
2023-02-25T23:37:35.531Z,100215.98
2023-02-25T23:40:26.299Z,100212.55
2023-02-25T23:43:10.930Z,100212.39
2023-02-25T23:45:55.850Z,100213.95
2023-02-25T23:48:46.614Z,100214.98
2023-02-25T23:51:38.363Z,100214.63
2023-02-25T23:54:29.145Z,100212.59
2023-02-25T23:57:10.013Z,100217.77
